Simmons, Missouri
Current Conditions -  °F | °C
As of 10:53 AM on Wednesday 26 Nov 2014 (Local Time) from KUNO Reporting Station
Light Snow Light Snow  
Wind Chill: 29°   Ceiling: 300
Heat Index: 33°   Visibility: 5mi
Dew Point: 31°   Wind: 5mph
Humidity: 92%   Direction: 250°WSW
Pressure: 29.99"   Gusts: NA
Location:  37.3091°N, 91.9516°W
Report Text: KUNO 261653Z AUTO 25004KT 5SM -SN BR OVC003 01/M01 A2999 RMK AO2 SLP166 P0006 T00061006
Loading
Personal Weather Stations






























Interactive Weather Map New forecast layout! Learn more

10-Day Weather Forecast

Advertisements
Track Severe Weather on mobile